sensor_id;sensor_type;location;lat;lon;timestamp;P1;durP1;ratioP1;P2;durP2;ratioP2
60078;SDS011;45951;45.824;8.824;2022-11-20T00:03:32;1.52;;;0.95;;
60078;SDS011;45951;45.824;8.824;2022-11-20T00:09:32;2.70;;;1.00;;
60078;SDS011;45951;45.824;8.824;2022-11-20T00:15:32;1.38;;;1.00;;
60078;SDS011;45951;45.824;8.824;2022-11-20T00:21:33;1.67;;;1.10;;
60078;SDS011;45951;45.824;8.824;2022-11-20T00:27:33;1.10;;;1.00;;
60078;SDS011;45951;45.824;8.824;2022-11-20T00:33:34;1.67;;;1.10;;
60078;SDS011;45951;45.824;8.824;2022-11-20T00:39:34;1.52;;;1.10;;
60078;SDS011;45951;45.824;8.824;2022-11-20T00:45:35;1.13;;;1.02;;
60078;SDS011;45951;45.824;8.824;2022-11-20T00:51:35;0.93;;;0.80;;
60078;SDS011;45951;45.824;8.824;2022-11-20T00:57:35;1.45;;;1.02;;
60078;SDS011;45951;45.824;8.824;2022-11-20T01:03:36;1.35;;;1.10;;
60078;SDS011;45951;45.824;8.824;2022-11-20T01:09:38;1.38;;;1.08;;
60078;SDS011;45951;45.824;8.824;2022-11-20T01:15:39;0.85;;;0.70;;
60078;SDS011;45951;45.824;8.824;2022-11-20T01:21:41;0.95;;;0.80;;
60078;SDS011;45951;45.824;8.824;2022-11-20T01:27:42;0.70;;;0.70;;
60078;SDS011;45951;45.824;8.824;2022-11-20T01:33:42;1.88;;;0.90;;
60078;SDS011;45951;45.824;8.824;2022-11-20T01:39:43;2.85;;;1.20;;
60078;SDS011;45951;45.824;8.824;2022-11-20T01:52:03;0.90;;;0.80;;
60078;SDS011;45951;45.824;8.824;2022-11-20T01:58:06;1.17;;;0.90;;
60078;SDS011;45951;45.824;8.824;2022-11-20T02:04:07;1.67;;;0.90;;
60078;SDS011;45951;45.824;8.824;2022-11-20T02:10:08;1.05;;;0.90;;
60078;SDS011;45951;45.824;8.824;2022-11-20T02:16:20;1.00;;;0.82;;
60078;SDS011;45951;45.824;8.824;2022-11-20T02:22:25;1.25;;;0.82;;
60078;SDS011;45951;45.824;8.824;2022-11-20T02:28:29;1.20;;;0.90;;
60078;SDS011;45951;45.824;8.824;2022-11-20T02:34:29;0.80;;;0.80;;
60078;SDS011;45951;45.824;8.824;2022-11-20T02:40:30;1.00;;;0.70;;
60078;SDS011;45951;45.824;8.824;2022-11-20T02:46:30;0.77;;;0.75;;
60078;SDS011;45951;45.824;8.824;2022-11-20T02:52:31;0.70;;;0.57;;
60078;SDS011;45951;45.824;8.824;2022-11-20T02:58:32;3.00;;;0.73;;
60078;SDS011;45951;45.824;8.824;2022-11-20T03:04:32;0.80;;;0.80;;
60078;SDS011;45951;45.824;8.824;2022-11-20T03:10:32;0.97;;;0.83;;
60078;SDS011;45951;45.824;8.824;2022-11-20T03:16:33;1.15;;;0.70;;
60078;SDS011;45951;45.824;8.824;2022-11-20T03:22:33;1.02;;;0.90;;
60078;SDS011;45951;45.824;8.824;2022-11-20T03:28:33;0.98;;;0.60;;
60078;SDS011;45951;45.824;8.824;2022-11-20T03:34:34;1.05;;;0.80;;
60078;SDS011;45951;45.824;8.824;2022-11-20T03:40:34;0.95;;;0.80;;
60078;SDS011;45951;45.824;8.824;2022-11-20T03:46:35;0.80;;;0.80;;
60078;SDS011;45951;45.824;8.824;2022-11-20T03:52:36;1.70;;;0.93;;
60078;SDS011;45951;45.824;8.824;2022-11-20T03:58:37;0.80;;;0.80;;
60078;SDS011;45951;45.824;8.824;2022-11-20T04:04:41;1.63;;;0.80;;
60078;SDS011;45951;45.824;8.824;2022-11-20T04:10:41;2.30;;;0.85;;
60078;SDS011;45951;45.824;8.824;2022-11-20T04:16:42;1.35;;;0.70;;
60078;SDS011;45951;45.824;8.824;2022-11-20T04:22:42;1.05;;;0.85;;
60078;SDS011;45951;45.824;8.824;2022-11-20T04:28:43;1.50;;;0.80;;
60078;SDS011;45951;45.824;8.824;2022-11-20T04:34:43;0.68;;;0.68;;
60078;SDS011;45951;45.824;8.824;2022-11-20T04:40:43;1.40;;;0.90;;
60078;SDS011;45951;45.824;8.824;2022-11-20T04:46:43;0.75;;;0.75;;
60078;SDS011;45951;45.824;8.824;2022-11-20T04:52:44;0.60;;;0.60;;
60078;SDS011;45951;45.824;8.824;2022-11-20T04:58:44;0.70;;;0.70;;
60078;SDS011;45951;45.824;8.824;2022-11-20T05:04:44;0.73;;;0.73;;
60078;SDS011;45951;45.824;8.824;2022-11-20T05:10:45;1.20;;;0.77;;
60078;SDS011;45951;45.824;8.824;2022-11-20T05:16:46;0.95;;;0.80;;
60078;SDS011;45951;45.824;8.824;2022-11-20T05:22:46;1.42;;;0.90;;
60078;SDS011;45951;45.824;8.824;2022-11-20T05:28:47;2.58;;;1.40;;
60078;SDS011;45951;45.824;8.824;2022-11-20T05:34:47;2.40;;;1.38;;
60078;SDS011;45951;45.824;8.824;2022-11-20T05:40:48;2.25;;;1.00;;
60078;SDS011;45951;45.824;8.824;2022-11-20T05:46:48;1.55;;;0.98;;
60078;SDS011;45951;45.824;8.824;2022-11-20T05:52:48;0.85;;;0.80;;
60078;SDS011;45951;45.824;8.824;2022-11-20T05:58:49;1.88;;;1.10;;
60078;SDS011;45951;45.824;8.824;2022-11-20T06:04:49;1.15;;;1.05;;
60078;SDS011;45951;45.824;8.824;2022-11-20T06:10:49;3.22;;;1.40;;
60078;SDS011;45951;45.824;8.824;2022-11-20T06:16:49;1.60;;;0.93;;
60078;SDS011;45951;45.824;8.824;2022-11-20T06:22:50;3.38;;;1.20;;
60078;SDS011;45951;45.824;8.824;2022-11-20T06:28:50;3.05;;;1.40;;
60078;SDS011;45951;45.824;8.824;2022-11-20T06:34:51;1.58;;;1.02;;
60078;SDS011;45951;45.824;8.824;2022-11-20T06:40:52;1.80;;;1.15;;
60078;SDS011;45951;45.824;8.824;2022-11-20T06:46:52;1.57;;;1.30;;
60078;SDS011;45951;45.824;8.824;2022-11-20T06:52:52;1.00;;;0.90;;
60078;SDS011;45951;45.824;8.824;2022-11-20T06:58:53;2.08;;;1.10;;
60078;SDS011;45951;45.824;8.824;2022-11-20T07:04:53;3.42;;;1.00;;
60078;SDS011;45951;45.824;8.824;2022-11-20T07:10:56;1.60;;;1.20;;
60078;SDS011;45951;45.824;8.824;2022-11-20T07:16:58;3.25;;;1.48;;
60078;SDS011;45951;45.824;8.824;2022-11-20T07:22:58;3.40;;;1.80;;
60078;SDS011;45951;45.824;8.824;2022-11-20T07:28:59;4.88;;;2.00;;
60078;SDS011;45951;45.824;8.824;2022-11-20T07:34:59;6.13;;;2.40;;
60078;SDS011;45951;45.824;8.824;2022-11-20T07:40:59;7.03;;;3.35;;
60078;SDS011;45951;45.824;8.824;2022-11-20T07:47:02;7.30;;;3.10;;
60078;SDS011;45951;45.824;8.824;2022-11-20T07:53:03;8.48;;;3.20;;
60078;SDS011;45951;45.824;8.824;2022-11-20T07:59:04;8.20;;;3.75;;
60078;SDS011;45951;45.824;8.824;2022-11-20T08:05:05;6.90;;;2.73;;
60078;SDS011;45951;45.824;8.824;2022-11-20T08:11:05;7.70;;;3.10;;
60078;SDS011;45951;45.824;8.824;2022-11-20T08:17:25;6.45;;;2.92;;
60078;SDS011;45951;45.824;8.824;2022-11-20T08:23:26;4.30;;;2.47;;
60078;SDS011;45951;45.824;8.824;2022-11-20T08:29:30;3.58;;;1.85;;
60078;SDS011;45951;45.824;8.824;2022-11-20T08:35:37;2.92;;;2.00;;
60078;SDS011;45951;45.824;8.824;2022-11-20T08:41:38;2.90;;;1.73;;
60078;SDS011;45951;45.824;8.824;2022-11-20T08:47:38;4.05;;;2.22;;
60078;SDS011;45951;45.824;8.824;2022-11-20T08:53:39;4.38;;;2.50;;
60078;SDS011;45951;45.824;8.824;2022-11-20T08:59:39;2.28;;;1.42;;
60078;SDS011;45951;45.824;8.824;2022-11-20T09:05:39;1.33;;;1.23;;
60078;SDS011;45951;45.824;8.824;2022-11-20T09:11:40;1.92;;;1.40;;
60078;SDS011;45951;45.824;8.824;2022-11-20T09:17:40;4.10;;;2.40;;
60078;SDS011;45951;45.824;8.824;2022-11-20T09:23:40;2.58;;;1.65;;
60078;SDS011;45951;45.824;8.824;2022-11-20T09:29:41;1.92;;;1.20;;
60078;SDS011;45951;45.824;8.824;2022-11-20T09:35:42;2.05;;;1.38;;
60078;SDS011;45951;45.824;8.824;2022-11-20T09:48:00;1.10;;;1.00;;
60078;SDS011;45951;45.824;8.824;2022-11-20T09:54:13;0.95;;;0.70;;
60078;SDS011;45951;45.824;8.824;2022-11-20T10:00:16;0.77;;;0.77;;
60078;SDS011;45951;45.824;8.824;2022-11-20T10:06:17;1.10;;;1.00;;
60078;SDS011;45951;45.824;8.824;2022-11-20T10:25:06;1.30;;;0.90;;
60078;SDS011;45951;45.824;8.824;2022-11-20T10:37:34;0.60;;;0.60;;
60078;SDS011;45951;45.824;8.824;2022-11-20T10:43:38;1.45;;;0.80;;
60078;SDS011;45951;45.824;8.824;2022-11-20T10:49:38;1.40;;;0.95;;
60078;SDS011;45951;45.824;8.824;2022-11-20T10:55:40;0.98;;;0.75;;
60078;SDS011;45951;45.824;8.824;2022-11-20T11:01:44;2.42;;;1.70;;
60078;SDS011;45951;45.824;8.824;2022-11-20T11:07:44;1.27;;;0.80;;
60078;SDS011;45951;45.824;8.824;2022-11-20T11:13:45;0.80;;;0.80;;
60078;SDS011;45951;45.824;8.824;2022-11-20T11:19:45;0.73;;;0.70;;
60078;SDS011;45951;45.824;8.824;2022-11-20T11:25:55;0.68;;;0.68;;
60078;SDS011;45951;45.824;8.824;2022-11-20T11:32:07;2.65;;;1.50;;
60078;SDS011;45951;45.824;8.824;2022-11-20T11:38:12;1.08;;;0.95;;
60078;SDS011;45951;45.824;8.824;2022-11-20T11:50:34;2.35;;;1.40;;
60078;SDS011;45951;45.824;8.824;2022-11-20T11:56:34;1.15;;;0.80;;
60078;SDS011;45951;45.824;8.824;2022-11-20T12:08:47;0.95;;;0.80;;
60078;SDS011;45951;45.824;8.824;2022-11-20T12:14:51;1.25;;;0.93;;
60078;SDS011;45951;45.824;8.824;2022-11-20T12:33:18;2.17;;;1.00;;
60078;SDS011;45951;45.824;8.824;2022-11-20T13:04:16;2.38;;;1.10;;
60078;SDS011;45951;45.824;8.824;2022-11-20T13:17:16;2.55;;;1.70;;
60078;SDS011;45951;45.824;8.824;2022-11-20T13:23:23;4.30;;;2.40;;
60078;SDS011;45951;45.824;8.824;2022-11-20T13:29:25;2.75;;;1.48;;
60078;SDS011;45951;45.824;8.824;2022-11-20T13:41:34;2.05;;;1.00;;
60078;SDS011;45951;45.824;8.824;2022-11-20T13:47:37;1.52;;;1.10;;
60078;SDS011;45951;45.824;8.824;2022-11-20T14:00:11;1.08;;;0.85;;
60078;SDS011;45951;45.824;8.824;2022-11-20T14:06:20;1.95;;;1.02;;
60078;SDS011;45951;45.824;8.824;2022-11-20T14:12:26;1.20;;;1.10;;
60078;SDS011;45951;45.824;8.824;2022-11-20T14:18:31;1.15;;;0.90;;
60078;SDS011;45951;45.824;8.824;2022-11-20T14:24:31;2.08;;;1.38;;
60078;SDS011;45951;45.824;8.824;2022-11-20T14:30:41;1.90;;;1.00;;
60078;SDS011;45951;45.824;8.824;2022-11-20T14:36:44;1.10;;;1.00;;
60078;SDS011;45951;45.824;8.824;2022-11-20T14:42:44;1.35;;;0.93;;
60078;SDS011;45951;45.824;8.824;2022-11-20T14:48:46;1.58;;;0.85;;
60078;SDS011;45951;45.824;8.824;2022-11-20T14:54:48;1.73;;;1.10;;
60078;SDS011;45951;45.824;8.824;2022-11-20T15:01:03;1.90;;;1.20;;
60078;SDS011;45951;45.824;8.824;2022-11-20T15:07:05;3.10;;;1.30;;
60078;SDS011;45951;45.824;8.824;2022-11-20T15:13:06;3.90;;;1.60;;
60078;SDS011;45951;45.824;8.824;2022-11-20T15:25:17;3.75;;;1.73;;
60078;SDS011;45951;45.824;8.824;2022-11-20T15:31:19;2.65;;;1.60;;
60078;SDS011;45951;45.824;8.824;2022-11-20T15:37:21;4.13;;;2.17;;
60078;SDS011;45951;45.824;8.824;2022-11-20T15:43:21;3.42;;;2.00;;
60078;SDS011;45951;45.824;8.824;2022-11-20T15:49:21;4.68;;;2.88;;
60078;SDS011;45951;45.824;8.824;2022-11-20T15:55:23;3.92;;;2.17;;
60078;SDS011;45951;45.824;8.824;2022-11-20T16:01:24;4.82;;;2.35;;
60078;SDS011;45951;45.824;8.824;2022-11-20T16:07:24;2.67;;;1.80;;
60078;SDS011;45951;45.824;8.824;2022-11-20T16:13:24;4.38;;;2.00;;
60078;SDS011;45951;45.824;8.824;2022-11-20T16:19:43;3.38;;;2.10;;
60078;SDS011;45951;45.824;8.824;2022-11-20T16:25:44;4.37;;;2.30;;
60078;SDS011;45951;45.824;8.824;2022-11-20T16:31:44;6.20;;;3.45;;
60078;SDS011;45951;45.824;8.824;2022-11-20T16:37:45;4.35;;;2.60;;
60078;SDS011;45951;45.824;8.824;2022-11-20T16:43:46;8.30;;;3.15;;
60078;SDS011;45951;45.824;8.824;2022-11-20T16:49:48;4.03;;;2.28;;
60078;SDS011;45951;45.824;8.824;2022-11-20T16:55:48;3.97;;;2.40;;
60078;SDS011;45951;45.824;8.824;2022-11-20T17:01:48;3.95;;;2.28;;
60078;SDS011;45951;45.824;8.824;2022-11-20T17:07:48;5.00;;;2.30;;
60078;SDS011;45951;45.824;8.824;2022-11-20T17:13:49;5.97;;;2.80;;
60078;SDS011;45951;45.824;8.824;2022-11-20T17:19:49;7.00;;;2.90;;
60078;SDS011;45951;45.824;8.824;2022-11-20T17:25:50;6.03;;;3.15;;
60078;SDS011;45951;45.824;8.824;2022-11-20T17:31:50;6.00;;;2.90;;
60078;SDS011;45951;45.824;8.824;2022-11-20T17:37:51;6.20;;;3.30;;
60078;SDS011;45951;45.824;8.824;2022-11-20T17:44:00;5.97;;;3.05;;
60078;SDS011;45951;45.824;8.824;2022-11-20T17:50:01;6.13;;;3.42;;
60078;SDS011;45951;45.824;8.824;2022-11-20T17:56:02;6.47;;;3.80;;
60078;SDS011;45951;45.824;8.824;2022-11-20T18:02:22;7.18;;;3.97;;
60078;SDS011;45951;45.824;8.824;2022-11-20T18:08:22;10.70;;;5.78;;
60078;SDS011;45951;45.824;8.824;2022-11-20T18:14:22;11.55;;;6.80;;
60078;SDS011;45951;45.824;8.824;2022-11-20T18:20:28;10.70;;;7.03;;
60078;SDS011;45951;45.824;8.824;2022-11-20T18:26:28;12.65;;;7.72;;
60078;SDS011;45951;45.824;8.824;2022-11-20T18:32:28;12.15;;;7.60;;
60078;SDS011;45951;45.824;8.824;2022-11-20T18:38:29;11.68;;;7.80;;
60078;SDS011;45951;45.824;8.824;2022-11-20T18:44:30;12.60;;;7.72;;
60078;SDS011;45951;45.824;8.824;2022-11-20T18:50:49;12.05;;;7.47;;
60078;SDS011;45951;45.824;8.824;2022-11-20T18:56:49;10.65;;;7.00;;
60078;SDS011;45951;45.824;8.824;2022-11-20T19:02:51;11.77;;;8.00;;
60078;SDS011;45951;45.824;8.824;2022-11-20T19:08:52;13.90;;;8.90;;
60078;SDS011;45951;45.824;8.824;2022-11-20T19:14:53;9.97;;;6.90;;
60078;SDS011;45951;45.824;8.824;2022-11-20T19:20:53;12.52;;;7.38;;
60078;SDS011;45951;45.824;8.824;2022-11-20T19:26:53;10.35;;;6.30;;
60078;SDS011;45951;45.824;8.824;2022-11-20T19:32:57;8.85;;;5.80;;
60078;SDS011;45951;45.824;8.824;2022-11-20T19:38:57;10.57;;;7.20;;
60078;SDS011;45951;45.824;8.824;2022-11-20T19:44:58;11.40;;;6.97;;
60078;SDS011;45951;45.824;8.824;2022-11-20T19:51:07;12.70;;;6.68;;
60078;SDS011;45951;45.824;8.824;2022-11-20T19:57:08;8.95;;;6.18;;
60078;SDS011;45951;45.824;8.824;2022-11-20T20:03:08;10.13;;;6.10;;
60078;SDS011;45951;45.824;8.824;2022-11-20T20:09:09;8.88;;;5.55;;
60078;SDS011;45951;45.824;8.824;2022-11-20T20:15:11;11.57;;;5.78;;
60078;SDS011;45951;45.824;8.824;2022-11-20T20:21:12;9.23;;;5.50;;
60078;SDS011;45951;45.824;8.824;2022-11-20T20:27:13;8.57;;;5.07;;
60078;SDS011;45951;45.824;8.824;2022-11-20T20:33:14;7.60;;;4.55;;
60078;SDS011;45951;45.824;8.824;2022-11-20T20:39:14;6.72;;;4.32;;
60078;SDS011;45951;45.824;8.824;2022-11-20T20:45:14;7.00;;;4.53;;
60078;SDS011;45951;45.824;8.824;2022-11-20T20:51:15;5.70;;;3.67;;
60078;SDS011;45951;45.824;8.824;2022-11-20T20:57:15;6.07;;;3.83;;
60078;SDS011;45951;45.824;8.824;2022-11-20T21:03:15;6.53;;;4.28;;
60078;SDS011;45951;45.824;8.824;2022-11-20T21:09:16;9.27;;;4.43;;
60078;SDS011;45951;45.824;8.824;2022-11-20T21:15:17;8.40;;;4.43;;
60078;SDS011;45951;45.824;8.824;2022-11-20T21:21:18;6.63;;;3.70;;
60078;SDS011;45951;45.824;8.824;2022-11-20T21:27:36;8.52;;;4.13;;
60078;SDS011;45951;45.824;8.824;2022-11-20T21:33:41;8.70;;;4.30;;
60078;SDS011;45951;45.824;8.824;2022-11-20T21:39:42;7.63;;;3.60;;
60078;SDS011;45951;45.824;8.824;2022-11-20T21:45:49;7.10;;;4.13;;
60078;SDS011;45951;45.824;8.824;2022-11-20T21:51:51;6.25;;;4.05;;
60078;SDS011;45951;45.824;8.824;2022-11-20T21:57:52;6.05;;;3.97;;
60078;SDS011;45951;45.824;8.824;2022-11-20T22:03:53;6.95;;;4.03;;
60078;SDS011;45951;45.824;8.824;2022-11-20T22:09:56;8.23;;;4.63;;
60078;SDS011;45951;45.824;8.824;2022-11-20T22:16:00;7.28;;;4.20;;
60078;SDS011;45951;45.824;8.824;2022-11-20T22:22:00;6.20;;;3.45;;
60078;SDS011;45951;45.824;8.824;2022-11-20T22:28:00;7.75;;;3.63;;
60078;SDS011;45951;45.824;8.824;2022-11-20T22:34:01;7.30;;;3.03;;
60078;SDS011;45951;45.824;8.824;2022-11-20T22:40:01;8.17;;;3.43;;
60078;SDS011;45951;45.824;8.824;2022-11-20T22:46:09;6.60;;;3.25;;
60078;SDS011;45951;45.824;8.824;2022-11-20T22:52:11;5.10;;;2.90;;
60078;SDS011;45951;45.824;8.824;2022-11-20T22:58:12;6.25;;;3.60;;
60078;SDS011;45951;45.824;8.824;2022-11-20T23:04:12;6.38;;;3.70;;
60078;SDS011;45951;45.824;8.824;2022-11-20T23:10:13;8.50;;;5.00;;
60078;SDS011;45951;45.824;8.824;2022-11-20T23:16:14;6.30;;;3.90;;
60078;SDS011;45951;45.824;8.824;2022-11-20T23:22:16;6.15;;;3.10;;
60078;SDS011;45951;45.824;8.824;2022-11-20T23:28:16;4.93;;;2.53;;
60078;SDS011;45951;45.824;8.824;2022-11-20T23:34:17;3.30;;;2.00;;
60078;SDS011;45951;45.824;8.824;2022-11-20T23:40:17;2.90;;;1.70;;
60078;SDS011;45951;45.824;8.824;2022-11-20T23:52:18;3.13;;;1.60;;
60078;SDS011;45951;45.824;8.824;2022-11-20T23:58:19;3.10;;;1.70;;
